Time;durP1;ratioP1;P1;durP2;ratioP2;P2;SDS_P1;SDS_P2;PMS_P1;PMS_P2;Temp;Humidity;BMP_temperature;BMP_pressure;BME280_temperature;BME280_humidity;BME280_pressure;Samples;Min_cycle;Max_cycle;Signal;HPM_P1;HPM_P2
2022/08/01 00:01:36;;;;;;;22.30;16.33;;;14.80;99.90;;;;;;5074298;28;20390;-71
2022/08/01 00:04:02;;;;;;;20.48;16.60;;;14.80;99.90;;;;;;5072996;28;20454;-71
2022/08/01 00:06:27;;;;;;;22.40;17.70;;;14.80;99.90;;;;;;5073885;28;20423;-73
2022/08/01 00:08:53;;;;;;;23.25;17.98;;;14.80;99.90;;;;;;5074217;28;20108;-70
2022/08/01 00:11:19;;;;;;;23.00;17.60;;;14.80;99.90;;;;;;5074022;28;20498;-70
2022/08/01 00:13:45;;;;;;;24.90;18.27;;;14.70;99.90;;;;;;5074161;28;20067;-72
2022/08/01 00:16:10;;;;;;;22.60;18.83;;;14.80;99.90;;;;;;5072646;28;20527;-71
2022/08/01 00:18:36;;;;;;;25.63;17.40;;;14.80;99.90;;;;;;5073891;28;20024;-70
2022/08/01 00:21:03;;;;;;;24.00;18.02;;;14.80;99.90;;;;;;5073974;28;20116;-73
2022/08/01 00:23:29;;;;;;;20.35;18.02;;;14.80;99.90;;;;;;5072622;28;20031;-72
2022/08/01 00:25:55;;;;;;;23.60;19.60;;;14.70;99.90;;;;;;5073925;28;20432;-74
2022/08/01 00:28:21;;;;;;;23.35;17.27;;;14.70;99.90;;;;;;5073575;28;20029;-70
2022/08/01 00:30:46;;;;;;;23.90;19.15;;;14.70;99.90;;;;;;5073607;28;20512;-71
2022/08/01 00:33:12;;;;;;;26.60;18.60;;;14.60;99.90;;;;;;5073690;28;20028;-70
2022/08/01 00:35:37;;;;;;;25.73;19.90;;;14.60;99.90;;;;;;5073829;28;20031;-71
2022/08/01 00:38:03;;;;;;;28.25;21.58;;;14.60;99.90;;;;;;5073585;28;20029;-70
2022/08/01 00:40:29;;;;;;;34.75;23.13;;;14.60;99.90;;;;;;5072290;28;20020;-72
2022/08/01 00:42:55;;;;;;;30.90;22.20;;;14.60;99.90;;;;;;5073568;28;20055;-70
2022/08/01 00:45:20;;;;;;;30.15;22.08;;;14.50;99.90;;;;;;5073581;28;20115;-70
2022/08/01 00:47:46;;;;;;;32.72;23.38;;;14.50;99.90;;;;;;5085553;28;20020;-74
2022/08/01 00:50:12;;;;;;;35.30;24.40;;;14.60;99.90;;;;;;5093834;28;20023;-70
2022/08/01 00:52:39;;;;;;;39.30;23.95;;;14.60;99.90;;;;;;5093289;28;20048;-73
2022/08/01 00:55:05;;;;;;;37.13;25.27;;;14.50;99.90;;;;;;5093644;28;20032;-70
2022/08/01 00:57:31;;;;;;;33.60;24.92;;;14.50;99.90;;;;;;5093443;28;20538;-73
2022/08/01 00:59:57;;;;;;;30.83;22.55;;;14.60;99.90;;;;;;5092412;28;20059;-71
2022/08/01 01:02:23;;;;;;;38.95;26.30;;;14.60;99.90;;;;;;5092188;28;20084;-70
2022/08/01 01:04:48;;;;;;;34.65;24.60;;;14.50;99.90;;;;;;5093382;28;20510;-72
2022/08/01 01:07:20;;;;;;;37.13;25.40;;;14.50;99.90;;;;;;5092150;28;20028;-73
2022/08/01 01:10:05;;;;;;;34.88;24.35;;;14.50;99.90;;;;;;5073413;28;20473;-70
2022/08/01 01:13:17;;;;;;;35.92;23.20;;;14.50;99.90;;;;;;5071887;28;20386;-70
2022/08/01 01:16:01;;;;;;;32.67;22.00;;;14.50;99.90;;;;;;5031115;28;20402;-70
2022/08/01 01:18:41;;;;;;;36.03;24.92;;;14.40;99.90;;;;;;5069596;28;20444;-70
2022/08/01 01:21:07;;;;;;;36.45;24.00;;;14.40;99.90;;;;;;5073376;28;20024;-72
2022/08/01 01:23:57;;;;;;;33.55;23.73;;;14.50;99.90;;;;;;5072966;28;20031;-72
2022/08/01 01:27:00;;;;;;;37.03;24.73;;;14.50;99.90;;;;;;5073008;28;20037;-73
2022/08/01 01:29:31;;;;;;;34.05;22.00;;;14.40;99.90;;;;;;5071713;28;20033;-72
2022/08/01 01:32:26;;;;;;;29.13;22.35;;;14.40;99.90;;;;;;5071841;28;20021;-70
2022/08/01 01:34:54;;;;;;;36.53;24.40;;;14.40;99.90;;;;;;5064354;28;20044;-73
2022/08/01 01:37:24;;;;;;;33.33;22.35;;;14.40;99.90;;;;;;5072825;28;20466;-72
2022/08/01 01:39:52;;;;;;;33.63;24.67;;;14.40;99.90;;;;;;5073178;28;20020;-72
2022/08/01 01:42:19;;;;;;;34.72;23.83;;;14.40;99.90;;;;;;5075921;28;21080;-74
2022/08/01 01:44:49;;;;;;;34.88;24.58;;;14.40;99.90;;;;;;5076735;28;20032;-73
2022/08/01 01:47:17;;;;;;;33.25;22.63;;;14.40;99.90;;;;;;5084990;28;20020;-73
2022/08/01 01:49:46;;;;;;;36.25;24.45;;;14.40;99.90;;;;;;5097095;28;20024;-71
2022/08/01 01:52:15;;;;;;;30.70;22.75;;;14.40;99.90;;;;;;5097008;28;20447;-70
2022/08/01 01:54:46;;;;;;;31.75;23.13;;;14.40;99.90;;;;;;5096926;28;20016;-73
2022/08/01 01:57:14;;;;;;;36.60;24.75;;;14.40;99.90;;;;;;5096957;28;20426;-73
2022/08/01 01:59:41;;;;;;;35.92;21.92;;;14.40;99.90;;;;;;5095620;28;20024;-70
2022/08/01 02:02:09;;;;;;;34.33;22.30;;;14.40;99.90;;;;;;5095734;28;20027;-70
2022/08/01 02:04:37;;;;;;;33.95;21.98;;;14.40;99.90;;;;;;5096822;28;20479;-70
2022/08/01 02:07:05;;;;;;;37.92;24.25;;;14.40;99.90;;;;;;5096692;28;20028;-73
2022/08/01 02:09:33;;;;;;;34.88;22.02;;;14.40;99.90;;;;;;5096754;28;20024;-73
2022/08/01 02:12:00;;;;;;;36.90;23.30;;;14.40;99.90;;;;;;5096771;28;20115;-70
2022/08/01 02:14:27;;;;;;;39.15;23.58;;;14.40;99.90;;;;;;5096713;28;20024;-73
2022/08/01 02:16:57;;;;;;;37.38;23.30;;;14.40;99.90;;;;;;5095309;28;20032;-71
2022/08/01 02:19:22;;;;;;;32.08;23.48;;;14.30;99.90;;;;;;5096555;28;20017;-72
2022/08/01 02:22:15;;;;;;;32.40;21.60;;;14.40;99.90;;;;;;5096575;28;20035;-72
2022/08/01 02:24:57;;;;;;;36.75;23.38;;;14.40;99.90;;;;;;5092193;28;20114;-72
2022/08/01 02:27:31;;;;;;;33.93;21.10;;;14.40;99.90;;;;;;5096451;28;20031;-71
2022/08/01 02:30:01;;;;;;;36.60;23.67;;;14.40;99.90;;;;;;5096338;28;20261;-71
2022/08/01 02:32:34;;;;;;;34.85;23.77;;;14.30;99.90;;;;;;5095098;28;20063;-71
2022/08/01 02:35:02;;;;;;;35.55;22.10;;;14.30;99.90;;;;;;5095087;28;20020;-71
2022/08/01 02:37:33;;;;;;;36.22;24.13;;;14.30;99.90;;;;;;5096222;28;20023;-73
2022/08/01 02:40:00;;;;;;;36.10;23.42;;;14.30;99.90;;;;;;5096224;28;20016;-71
2022/08/01 02:42:28;;;;;;;39.92;25.17;;;14.40;99.90;;;;;;5096059;28;20016;-73
2022/08/01 02:44:54;;;;;;;39.83;24.13;;;14.40;99.90;;;;;;5094713;28;20024;-73
2022/08/01 02:47:22;;;;;;;39.53;25.30;;;14.40;99.90;;;;;;5094655;28;20028;-71
2022/08/01 02:49:52;;;;;;;36.20;22.80;;;14.40;99.90;;;;;;5095910;28;20056;-71
2022/08/01 02:52:21;;;;;;;35.83;23.92;;;14.40;99.90;;;;;;5095566;28;20048;-71
2022/08/01 02:54:51;;;;;;;33.67;23.45;;;14.30;99.90;;;;;;5095646;28;20047;-73
2022/08/01 02:57:18;;;;;;;35.45;23.60;;;14.30;99.90;;;;;;5095794;28;20030;-74
2022/08/01 02:59:45;;;;;;;38.80;25.15;;;14.30;99.90;;;;;;5095802;28;20386;-73
2022/08/01 03:02:12;;;;;;;33.42;21.98;;;14.30;99.90;;;;;;5095980;28;20020;-72
2022/08/01 03:04:40;;;;;;;38.00;25.65;;;14.30;99.90;;;;;;5094356;28;20020;-71
2022/08/01 03:07:09;;;;;;;29.75;22.23;;;14.40;99.90;;;;;;5094260;28;20569;-71
2022/08/01 03:09:42;;;;;;;36.88;23.73;;;14.40;99.90;;;;;;5094363;28;20031;-73
2022/08/01 03:12:15;;;;;;;41.47;25.45;;;14.40;99.90;;;;;;5094427;28;20511;-72
2022/08/01 03:14:43;;;;;;;35.72;23.27;;;14.40;99.90;;;;;;5094195;28;20066;-72
2022/08/01 03:17:09;;;;;;;34.85;22.77;;;14.40;99.90;;;;;;5095505;28;20024;-71
2022/08/01 03:19:37;;;;;;;33.90;22.83;;;14.40;99.90;;;;;;5094104;28;20553;-72
2022/08/01 03:22:08;;;;;;;35.35;23.27;;;14.20;99.90;;;;;;5095379;28;20024;-71
2022/08/01 03:24:37;;;;;;;35.80;23.02;;;14.20;99.90;;;;;;5094068;28;20031;-73
2022/08/01 03:27:05;;;;;;;35.63;22.77;;;14.20;99.90;;;;;;5093931;28;20104;-71
2022/08/01 03:29:32;;;;;;;35.42;22.38;;;14.10;99.90;;;;;;5095278;28;20012;-71
2022/08/01 03:31:59;;;;;;;35.65;23.00;;;14.10;99.90;;;;;;5093970;28;20473;-73
2022/08/01 03:34:27;;;;;;;38.65;23.63;;;14.10;99.90;;;;;;5093773;28;20111;-73
2022/08/01 03:36:55;;;;;;;45.17;25.33;;;14.20;99.90;;;;;;5093794;28;20473;-73
2022/08/01 03:39:26;;;;;;;39.67;24.88;;;14.20;99.90;;;;;;5095062;28;20371;-74
2022/08/01 03:42:09;;;;;;;47.92;28.48;;;14.20;99.90;;;;;;5095283;28;20028;-72
2022/08/01 03:44:41;;;;;;;45.05;26.38;;;14.30;99.90;;;;;;5094891;28;20062;-71
2022/08/01 03:47:08;;;;;;;42.70;26.90;;;14.30;99.90;;;;;;5094746;28;20035;-72
2022/08/01 03:49:42;;;;;;;43.90;23.77;;;14.30;99.90;;;;;;5094766;28;20024;-72
2022/08/01 03:52:09;;;;;;;41.17;23.67;;;14.30;99.90;;;;;;5094567;28;20131;-73
2022/08/01 03:54:38;;;;;;;46.72;26.40;;;14.30;99.90;;;;;;5093221;28;20031;-73
2022/08/01 03:57:05;;;;;;;44.00;25.95;;;14.30;99.90;;;;;;5093444;28;20031;-71
2022/08/01 03:59:31;;;;;;;45.60;25.83;;;14.30;99.90;;;;;;5094611;28;20028;-73
2022/08/01 04:01:58;;;;;;;42.55;24.60;;;14.30;99.90;;;;;;5094612;28;20024;-71
2022/08/01 04:04:24;;;;;;;46.75;26.33;;;14.30;99.90;;;;;;5092674;28;20069;-71
2022/08/01 04:06:53;;;;;;;38.92;24.40;;;14.30;99.90;;;;;;5092870;28;20032;-72
2022/08/01 04:09:20;;;;;;;41.47;24.05;;;14.30;99.90;;;;;;5094470;28;20057;-71
2022/08/01 04:11:46;;;;;;;40.70;25.45;;;14.20;99.90;;;;;;5094306;28;20607;-72
2022/08/01 04:14:12;;;;;;;46.25;25.20;;;14.30;99.90;;;;;;5094463;28;20024;-73
2022/08/01 04:16:38;;;;;;;40.03;22.95;;;14.20;99.90;;;;;;5092709;28;20024;-71
2022/08/01 04:19:07;;;;;;;35.58;19.20;;;14.20;99.90;;;;;;5094269;28;20098;-73
2022/08/01 04:21:34;;;;;;;36.47;22.02;;;14.10;99.90;;;;;;5094136;28;20020;-71
2022/08/01 04:24:04;;;;;;;37.38;22.05;;;14.20;99.90;;;;;;5093023;28;20386;-73
2022/08/01 04:26:34;;;;;;;40.55;21.50;;;14.20;99.90;;;;;;5092600;28;20398;-71
2022/08/01 04:29:02;;;;;;;41.00;21.75;;;14.30;99.90;;;;;;5094088;28;20016;-72
2022/08/01 04:31:30;;;;;;;31.08;19.95;;;14.20;99.90;;;;;;5094143;28;20028;-73
2022/08/01 04:33:57;;;;;;;36.25;21.55;;;14.20;99.90;;;;;;5094082;28;20362;-71
2022/08/01 04:36:25;;;;;;;33.63;19.65;;;14.20;99.90;;;;;;5092541;28;20043;-73
2022/08/01 04:38:57;;;;;;;33.88;19.08;;;14.20;99.90;;;;;;5093992;28;20020;-71
2022/08/01 04:41:23;;;;;;;34.00;18.88;;;14.20;99.90;;;;;;5093874;28;20020;-73
2022/08/01 04:43:51;;;;;;;41.05;19.95;;;14.20;99.90;;;;;;5092616;28;20482;-71
2022/08/01 04:46:18;;;;;;;32.80;18.15;;;14.10;99.90;;;;;;5092189;28;20063;-73
2022/08/01 04:48:45;;;;;;;33.13;18.67;;;14.10;99.90;;;;;;5092384;28;20028;-72
2022/08/01 04:51:16;;;;;;;39.00;18.58;;;14.10;99.90;;;;;;5092458;28;20024;-72
2022/08/01 04:53:42;;;;;;;36.70;17.65;;;14.00;99.90;;;;;;5092263;28;20104;-72
2022/08/01 04:56:08;;;;;;;27.35;17.52;;;14.00;99.90;;;;;;5093528;28;20032;-73
2022/08/01 04:58:34;;;;;;;53.83;21.10;;;14.10;99.90;;;;;;5092942;28;20023;-73
2022/08/01 05:01:00;;;;;;;30.60;17.63;;;14.10;99.90;;;;;;5093540;28;20043;-72
2022/08/01 05:03:25;;;;;;;36.33;16.92;;;14.10;99.90;;;;;;5093485;28;20032;-71
2022/08/01 05:05:51;;;;;;;30.55;18.02;;;14.20;99.90;;;;;;5093237;28;20040;-72
2022/08/01 05:08:16;;;;;;;27.67;17.45;;;14.20;99.90;;;;;;5091905;28;20024;-71
2022/08/01 05:10:42;;;;;;;33.45;17.35;;;14.30;99.90;;;;;;5091560;28;20027;-73
2022/08/01 05:13:08;;;;;;;44.67;18.05;;;14.30;99.90;;;;;;5092066;28;20463;-71
2022/08/01 05:15:36;;;;;;;43.55;17.30;;;14.40;99.90;;;;;;5092214;28;20039;-71
2022/08/01 05:18:02;;;;;;;44.03;15.45;;;14.40;99.90;;;;;;5090499;28;20031;-71
2022/08/01 05:20:28;;;;;;;23.05;15.88;;;14.40;99.90;;;;;;5093009;28;20416;-73
2022/08/01 05:22:53;;;;;;;27.40;16.60;;;14.50;99.90;;;;;;5092967;28;20069;-73
2022/08/01 05:25:19;;;;;;;24.10;15.52;;;14.50;99.90;;;;;;5093106;28;20086;-72
2022/08/01 05:27:45;;;;;;;34.35;18.30;;;14.50;99.90;;;;;;5092944;28;20020;-71
2022/08/01 05:30:11;;;;;;;30.42;18.92;;;14.50;99.90;;;;;;5091949;28;20115;-71
2022/08/01 05:32:37;;;;;;;31.90;19.35;;;14.60;99.90;;;;;;5091899;28;20016;-71
2022/08/01 05:35:03;;;;;;;31.98;19.52;;;14.70;99.90;;;;;;5092506;28;20055;-72
2022/08/01 05:37:29;;;;;;;35.80;20.17;;;14.80;99.90;;;;;;5092396;28;20035;-71
2022/08/01 05:39:54;;;;;;;32.67;19.98;;;14.80;99.90;;;;;;5092197;28;20466;-72
2022/08/01 05:42:20;;;;;;;43.13;21.95;;;14.80;99.90;;;;;;5092867;28;20035;-71
2022/08/01 05:44:47;;;;;;;38.10;21.23;;;14.90;99.90;;;;;;5092795;28;20020;-73
2022/08/01 05:47:13;;;;;;;46.00;24.33;;;15.00;99.90;;;;;;5091312;28;20489;-71
2022/08/01 05:49:38;;;;;;;44.97;24.67;;;15.00;99.90;;;;;;5092393;28;20016;-71
2022/08/01 05:52:05;;;;;;;53.15;27.50;;;15.10;99.90;;;;;;5092329;28;20077;-71
2022/08/01 05:54:31;;;;;;;53.00;27.98;;;15.20;99.90;;;;;;5090783;28;20047;-71
2022/08/01 05:56:59;;;;;;;56.90;27.77;;;15.30;99.90;;;;;;5090281;28;20012;-71
2022/08/01 05:59:25;;;;;;;51.22;26.05;;;15.40;99.90;;;;;;5090886;28;20457;-72
2022/08/01 06:01:52;;;;;;;58.95;27.92;;;15.40;99.90;;;;;;5090174;28;20024;-73
2022/08/01 06:04:18;;;;;;;71.30;32.95;;;15.50;99.90;;;;;;5092747;28;20477;-73
2022/08/01 06:06:43;;;;;;;74.40;33.47;;;15.50;99.90;;;;;;5092030;28;20047;-73
2022/08/01 06:09:09;;;;;;;81.57;36.10;;;15.50;99.90;;;;;;5092274;28;20504;-72
2022/08/01 06:11:34;;;;;;;70.47;34.78;;;15.50;99.90;;;;;;5089473;28;20446;-71
2022/08/01 06:14:00;;;;;;;75.20;35.63;;;15.60;99.90;;;;;;5090424;28;20077;-73
2022/08/01 06:16:26;;;;;;;82.97;38.72;;;15.70;99.90;;;;;;5092645;28;20035;-71
2022/08/01 06:18:51;;;;;;;83.45;38.15;;;15.70;99.90;;;;;;5092754;28;20021;-71
2022/08/01 06:21:17;;;;;;;80.00;37.38;;;15.70;99.90;;;;;;5092864;28;20119;-73
2022/08/01 06:23:43;;;;;;;80.65;35.78;;;15.80;99.90;;;;;;5092600;28;20085;-71
2022/08/01 06:26:09;;;;;;;65.63;35.03;;;15.90;99.90;;;;;;5092601;28;20064;-74
2022/08/01 06:28:35;;;;;;;67.20;35.53;;;15.80;99.90;;;;;;5094189;28;20031;-71
2022/08/01 06:31:01;;;;;;;66.75;33.63;;;16.00;99.90;;;;;;5094804;28;20115;-71
2022/08/01 06:33:27;;;;;;;75.25;37.05;;;16.20;99.90;;;;;;5095046;28;20166;-73
2022/08/01 06:35:54;;;;;;;72.60;36.20;;;16.40;99.90;;;;;;5095884;28;20128;-73
2022/08/01 06:38:19;;;;;;;68.47;35.63;;;16.50;99.90;;;;;;5096052;28;20020;-71
2022/08/01 06:40:45;;;;;;;70.55;35.72;;;16.70;99.90;;;;;;5096200;28;20047;-71
2022/08/01 06:43:11;;;;;;;69.03;35.92;;;16.80;99.90;;;;;;5094752;28;20027;-71
2022/08/01 06:45:38;;;;;;;64.07;31.20;;;17.00;99.90;;;;;;5096268;28;20082;-71
2022/08/01 06:48:04;;;;;;;56.90;30.83;;;17.20;99.90;;;;;;5095911;28;20103;-73
2022/08/01 06:50:30;;;;;;;57.75;32.78;;;17.50;99.90;;;;;;5094687;28;20031;-71
2022/08/01 06:52:56;;;;;;;56.00;30.25;;;17.70;99.90;;;;;;5095917;28;20044;-71
2022/08/01 06:55:22;;;;;;;59.72;33.72;;;18.00;99.90;;;;;;5094454;28;20059;-73
2022/08/01 06:57:50;;;;;;;58.63;33.30;;;18.10;99.90;;;;;;5094499;28;20427;-72
2022/08/01 07:00:22;;;;;;;54.90;29.80;;;18.30;99.90;;;;;;5093494;28;20020;-73
2022/08/01 07:02:49;;;;;;;53.80;29.80;;;18.50;99.90;;;;;;5095754;28;20093;-72
2022/08/01 07:05:14;;;;;;;52.00;29.50;;;18.70;99.90;;;;;;5095844;28;20023;-71
2022/08/01 07:07:40;;;;;;;50.88;27.70;;;18.80;99.90;;;;;;5095686;28;20024;-71
2022/08/01 07:10:08;;;;;;;55.15;28.90;;;18.70;99.90;;;;;;5095883;28;20481;-73
2022/08/01 07:12:36;;;;;;;47.53;26.17;;;18.80;99.90;;;;;;5094269;28;20031;-72
2022/08/01 07:15:03;;;;;;;48.67;26.48;;;19.00;99.90;;;;;;5094545;28;20059;-71
2022/08/01 07:17:29;;;;;;;47.88;25.23;;;19.20;99.90;;;;;;5095477;28;20024;-71
2022/08/01 07:19:54;;;;;;;46.05;25.75;;;19.30;99.90;;;;;;5094420;28;20016;-72
2022/08/01 07:22:20;;;;;;;43.60;25.90;;;19.40;99.90;;;;;;5095449;28;20028;-71
2022/08/01 07:24:46;;;;;;;39.70;22.10;;;19.50;99.90;;;;;;5095419;28;20020;-72
2022/08/01 07:27:12;;;;;;;43.42;24.73;;;19.60;99.90;;;;;;5095390;28;20474;-73
2022/08/01 07:29:38;;;;;;;40.85;23.67;;;19.70;99.90;;;;;;5094215;28;20024;-72
2022/08/01 07:32:04;;;;;;;34.72;21.60;;;19.80;99.90;;;;;;5095544;28;20020;-73
2022/08/01 07:34:29;;;;;;;41.85;21.27;;;20.00;99.90;;;;;;5095213;28;20027;-73
2022/08/01 07:36:55;;;;;;;33.10;19.20;;;20.10;99.90;;;;;;5093883;28;20024;-73
2022/08/01 07:39:21;;;;;;;29.92;18.85;;;20.20;99.90;;;;;;5094165;28;20024;-71
2022/08/01 07:41:47;;;;;;;28.20;17.23;;;20.20;99.90;;;;;;5093888;28;20035;-72
2022/08/01 07:44:12;;;;;;;25.33;16.77;;;20.40;99.90;;;;;;5095114;28;20023;-72
2022/08/01 07:46:38;;;;;;;27.40;16.02;;;20.40;99.90;;;;;;5094789;28;20028;-72
2022/08/01 07:49:03;;;;;;;21.95;13.98;;;20.30;99.90;;;;;;5094969;28;20102;-72
2022/08/01 07:51:29;;;;;;;21.58;14.57;;;20.40;99.90;;;;;;5095006;28;20070;-72
2022/08/01 07:53:55;;;;;;;18.65;12.38;;;20.60;99.90;;;;;;5094583;28;20067;-73
2022/08/01 07:56:23;;;;;;;18.63;13.00;;;20.60;99.90;;;;;;5094946;28;20048;-73
2022/08/01 07:58:49;;;;;;;17.55;11.50;;;20.60;99.90;;;;;;5094726;28;20107;-71
2022/08/01 08:01:15;;;;;;;17.23;11.35;;;20.80;99.90;;;;;;5093542;28;20018;-73
2022/08/01 08:03:41;;;;;;;14.65;10.55;;;21.00;99.90;;;;;;5093328;28;20378;-73
2022/08/01 08:06:06;;;;;;;12.45;9.52;;;21.20;99.90;;;;;;5093237;28;20123;-71
2022/08/01 08:08:34;;;;;;;11.20;9.00;;;21.30;99.90;;;;;;5094477;28;20153;-71
2022/08/01 08:11:00;;;;;;;10.70;8.38;;;21.30;99.10;;;;;;5093437;28;20043;-73
2022/08/01 08:13:26;;;;;;;12.98;9.43;;;21.50;99.20;;;;;;5094453;28;20492;-72
2022/08/01 08:15:52;;;;;;;10.77;9.32;;;21.50;97.10;;;;;;5094591;28;20020;-71
2022/08/01 08:18:18;;;;;;;10.88;9.32;;;21.60;97.60;;;;;;5094305;28;20576;-71
2022/08/01 08:20:44;;;;;;;9.65;8.05;;;21.70;95.40;;;;;;5094306;28;20103;-71
2022/08/01 08:25:55;;;;;;;7.97;6.68;;;22.20;92.00;;;;;;5094476;28;20119;-71
2022/08/01 08:28:21;;;;;;;8.93;7.40;;;22.10;83.80;;;;;;5094161;28;20055;-71
2022/08/01 08:30:46;;;;;;;7.95;6.50;;;22.30;84.60;;;;;;5094132;28;20020;-72
2022/08/01 08:33:12;;;;;;;7.90;6.85;;;22.30;86.80;;;;;;5094268;28;20031;-71
2022/08/01 08:35:41;;;;;;;6.47;5.50;;;22.60;88.90;;;;;;5092882;28;20016;-72
2022/08/01 08:38:07;;;;;;;8.77;5.22;;;22.50;80.70;;;;;;5092786;28;20050;-71
2022/08/01 08:40:35;;;;;;;5.38;4.75;;;22.50;80.60;;;;;;5093946;28;20393;-73
2022/08/01 08:43:04;;;;;;;9.52;5.72;;;22.80;82.90;;;;;;5094090;28;20051;-73
2022/08/01 08:45:30;;;;;;;5.55;5.03;;;22.90;79.50;;;;;;5093872;28;20047;-72
2022/08/01 08:47:57;;;;;;;6.68;4.82;;;23.00;81.30;;;;;;5093741;28;20053;-71
2022/08/01 08:50:25;;;;;;;8.50;4.55;;;23.00;77.00;;;;;;5093668;28;20024;-73
2022/08/01 08:52:56;;;;;;;4.95;4.45;;;22.90;77.10;;;;;;5093673;28;20055;-71
2022/08/01 08:55:24;;;;;;;4.07;3.67;;;23.00;80.20;;;;;;5093844;28;20477;-72
2022/08/01 08:57:51;;;;;;;6.70;4.20;;;23.10;76.20;;;;;;5093720;28;20019;-72
2022/08/01 09:00:17;;;;;;;4.68;4.07;;;23.10;77.70;;;;;;5092342;28;20021;-72
2022/08/01 09:02:44;;;;;;;5.70;4.25;;;23.30;75.40;;;;;;5093648;28;20024;-73
2022/08/01 09:05:11;;;;;;;5.95;4.28;;;23.30;69.60;;;;;;5093522;28;20515;-71
2022/08/01 09:07:37;;;;;;;7.18;4.40;;;23.30;70.10;;;;;;5093469;28;20473;-71
2022/08/01 09:10:04;;;;;;;4.13;3.60;;;23.50;72.80;;;;;;5093519;28;20031;-73
2022/08/01 09:12:29;;;;;;;5.72;3.67;;;23.70;70.60;;;;;;5093567;28;20393;-72
2022/08/01 09:14:55;;;;;;;6.22;4.63;;;23.70;68.80;;;;;;5093482;28;20035;-72
2022/08/01 09:17:21;;;;;;;6.13;4.28;;;23.90;71.70;;;;;;5093439;28;20020;-71
2022/08/01 09:19:52;;;;;;;5.38;3.92;;;23.90;70.80;;;;;;5093361;28;20028;-72
2022/08/01 09:22:23;;;;;;;4.30;3.90;;;24.00;68.10;;;;;;5093563;28;20106;-71
2022/08/01 09:25:06;;;;;;;4.82;3.63;;;23.80;69.60;;;;;;5093300;28;20555;-72
2022/08/01 09:27:34;;;;;;;5.13;3.80;;;23.80;66.90;;;;;;5092065;28;20051;-71
2022/08/01 09:30:15;;;;;;;7.30;4.72;;;23.90;67.70;;;;;;5093424;28;20023;-71
2022/08/01 09:32:56;;;;;;;8.18;4.18;;;24.10;65.00;;;;;;5093242;28;20103;-71
2022/08/01 09:35:23;;;;;;;4.97;4.07;;;24.10;63.80;;;;;;5093336;28;20024;-71
2022/08/01 09:37:49;;;;;;;4.72;4.13;;;24.30;66.90;;;;;;5093249;28;20024;-71
2022/08/01 09:40:15;;;;;;;7.35;3.20;;;24.50;65.40;;;;;;5093251;28;20024;-72
2022/08/01 09:42:41;;;;;;;3.60;3.30;;;24.40;63.20;;;;;;5091961;28;20111;-72
2022/08/01 09:45:07;;;;;;;4.53;3.13;;;24.50;64.80;;;;;;5091834;28;20054;-73
2022/08/01 09:47:39;;;;;;;3.08;2.65;;;24.50;62.40;;;;;;5092974;28;20028;-71
2022/08/01 09:50:05;;;;;;;6.47;2.70;;;24.40;63.40;;;;;;5093118;28;20031;-71
2022/08/01 09:52:31;;;;;;;4.32;3.47;;;24.50;66.00;;;;;;5092854;28;20044;-72
2022/08/01 09:55:00;;;;;;;5.43;3.70;;;24.50;63.90;;;;;;5093163;28;20091;-71
2022/08/01 09:57:26;;;;;;;4.53;3.92;;;24.50;65.00;;;;;;5093008;28;20028;-71
2022/08/01 09:59:55;;;;;;;5.28;3.45;;;24.50;63.70;;;;;;5093019;28;20103;-71
2022/08/01 10:02:34;;;;;;;4.97;3.75;;;24.60;64.90;;;;;;5094477;28;20028;-73
2022/08/01 10:05:03;;;;;;;6.82;3.92;;;24.30;62.20;;;;;;5095775;28;20024;-73
2022/08/01 10:07:28;;;;;;;4.75;4.30;;;24.40;63.50;;;;;;5095704;28;20470;-73
2022/08/01 10:09:54;;;;;;;4.70;3.70;;;24.50;64.00;;;;;;5097013;28;20030;-72
2022/08/01 10:12:23;;;;;;;7.78;3.97;;;24.50;66.90;;;;;;5096844;28;20023;-71
2022/08/01 10:14:51;;;;;;;4.20;3.83;;;24.60;66.50;;;;;;5096785;28;20023;-72
2022/08/01 10:17:19;;;;;;;6.60;3.78;;;24.80;67.80;;;;;;5096682;28;20044;-71
2022/08/01 10:19:46;;;;;;;6.07;4.55;;;24.80;66.00;;;;;;5095393;28;20504;-72
2022/08/01 10:22:16;;;;;;;6.95;4.18;;;24.90;69.10;;;;;;5096575;28;20477;-71
2022/08/01 10:24:44;;;;;;;6.88;4.80;;;24.80;67.20;;;;;;5096678;28;20020;-71
2022/08/01 10:27:10;;;;;;;8.68;5.22;;;24.70;64.40;;;;;;5096414;28;20393;-74
2022/08/01 10:29:47;;;;;;;7.63;4.15;;;24.60;64.40;;;;;;5096614;28;20020;-71
2022/08/01 10:32:13;;;;;;;7.38;4.70;;;24.50;64.90;;;;;;5096533;28;20024;-72
2022/08/01 10:34:38;;;;;;;7.78;4.93;;;24.60;66.10;;;;;;5096392;28;20027;-73
2022/08/01 10:37:06;;;;;;;6.43;5.53;;;24.70;66.80;;;;;;5095016;28;20031;-72
2022/08/01 10:39:33;;;;;;;14.40;4.95;;;24.80;66.00;;;;;;5096492;28;20538;-72
2022/08/01 10:41:59;;;;;;;12.00;5.32;;;24.80;64.70;;;;;;5094985;28;20032;-72
2022/08/01 10:44:27;;;;;;;7.97;4.65;;;25.00;63.30;;;;;;5096364;28;20016;-73
2022/08/01 10:47:01;;;;;;;7.90;5.35;;;24.80;62.70;;;;;;5095909;28;20093;-71
2022/08/01 10:49:30;;;;;;;9.43;5.47;;;24.70;61.80;;;;;;5096321;28;20020;-71
2022/08/01 10:51:56;;;;;;;11.02;5.80;;;24.70;64.20;;;;;;5096262;28;20020;-72
2022/08/01 10:54:25;;;;;;;8.63;5.05;;;24.80;64.90;;;;;;5096140;28;20427;-71
2022/08/01 10:56:52;;;;;;;10.80;6.00;;;24.90;66.90;;;;;;5095882;28;20405;-72
2022/08/01 10:59:29;;;;;;;7.97;4.80;;;24.80;64.40;;;;;;5094732;28;20458;-73
2022/08/01 11:02:04;;;;;;;7.15;4.78;;;25.20;66.70;;;;;;5094595;28;20393;-71
2022/08/01 11:05:06;;;;;;;8.65;5.35;;;25.30;65.10;;;;;;5095850;28;20166;-72
2022/08/01 11:08:11;;;;;;;9.63;5.20;;;25.50;63.40;;;;;;5094442;28;20077;-71
2022/08/01 11:10:45;;;;;;;10.63;5.18;;;25.50;61.30;;;;;;5074360;28;20039;-73
2022/08/01 11:13:11;;;;;;;9.80;5.10;;;25.60;62.70;;;;;;5094397;28;20025;-71
2022/08/01 11:15:41;;;;;;;10.43;4.68;;;25.60;60.90;;;;;;5095666;28;20031;-72
2022/08/01 11:18:32;;;;;;;9.07;4.72;;;25.70;61.80;;;;;;5095553;28;20016;-71
2022/08/01 11:21:00;;;;;;;6.70;4.32;;;25.60;59.00;;;;;;5095714;28;20028;-71
2022/08/01 11:23:27;;;;;;;9.90;4.60;;;25.70;60.80;;;;;;5094139;28;20013;-71
2022/08/01 11:25:53;;;;;;;7.47;3.90;;;25.70;59.50;;;;;;5094120;28;20178;-71
2022/08/01 11:28:24;;;;;;;5.78;3.50;;;25.60;60.10;;;;;;5095392;28;20016;-73
2022/08/01 11:30:51;;;;;;;8.25;3.65;;;25.60;61.00;;;;;;5095336;28;20107;-72
2022/08/01 11:33:19;;;;;;;5.63;3.70;;;25.40;60.10;;;;;;5095325;28;20041;-72
2022/08/01 11:36:15;;;;;;;7.78;3.50;;;25.10;59.00;;;;;;5095247;28;20495;-73
2022/08/01 11:38:59;;;;;;;7.88;4.13;;;25.20;63.50;;;;;;5095175;28;20024;-71
2022/08/01 11:41:27;;;;;;;8.00;3.90;;;25.30;63.60;;;;;;5095316;28;20016;-71
2022/08/01 11:44:14;;;;;;;8.85;4.45;;;25.30;61.10;;;;;;5095386;28;20020;-71
2022/08/01 11:47:11;;;;;;;10.40;3.80;;;25.30;60.00;;;;;;5094685;28;20043;-72
2022/08/01 11:49:37;;;;;;;5.30;3.38;;;25.30;61.40;;;;;;5093827;28;20111;-73
2022/08/01 11:52:07;;;;;;;6.15;3.65;;;25.40;63.90;;;;;;5094841;28;20078;-73
2022/08/01 11:54:39;;;;;;;4.80;4.22;;;25.60;61.90;;;;;;5094541;28;20062;-73
2022/08/01 11:57:11;;;;;;;5.93;3.95;;;25.50;60.50;;;;;;5094716;28;20438;-73
2022/08/01 11:59:40;;;;;;;11.75;4.97;;;25.60;61.00;;;;;;5094882;28;20489;-72
2022/08/01 12:02:18;;;;;;;8.05;4.95;;;25.40;61.40;;;;;;5094791;28;20114;-72
2022/08/01 12:05:14;;;;;;;9.65;5.15;;;25.30;61.90;;;;;;5094783;28;20024;-73
2022/08/01 12:07:42;;;;;;;9.23;5.00;;;25.00;62.40;;;;;;5093785;28;20382;-71
2022/08/01 12:10:10;;;;;;;8.88;4.63;;;25.00;64.10;;;;;;5094761;28;20020;-71
2022/08/01 12:12:42;;;;;;;6.88;4.70;;;24.90;65.40;;;;;;5094561;28;20393;-73
2022/08/01 12:15:09;;;;;;;8.63;5.95;;;25.00;64.50;;;;;;5094552;28;20024;-72
2022/08/01 12:17:44;;;;;;;5.47;4.72;;;25.10;65.80;;;;;;5094332;28;20446;-72
2022/08/01 12:20:12;;;;;;;6.40;4.70;;;25.00;65.40;;;;;;5094893;28;20023;-73
2022/08/01 12:22:38;;;;;;;5.00;4.25;;;25.00;61.90;;;;;;5092373;28;20061;-73
2022/08/01 12:25:08;;;;;;;5.95;4.70;;;25.00;61.00;;;;;;5093782;28;20141;-71
2022/08/01 12:27:35;;;;;;;8.68;5.13;;;24.90;60.00;;;;;;5084616;28;20035;-74
2022/08/01 12:30:01;;;;;;;5.38;4.88;;;24.90;59.20;;;;;;5094108;28;20035;-71
2022/08/01 12:32:30;;;;;;;10.23;5.57;;;24.80;61.40;;;;;;5092366;28;20024;-70
2022/08/01 12:35:00;;;;;;;6.95;5.40;;;24.80;63.40;;;;;;5093973;28;20012;-72
2022/08/01 12:37:26;;;;;;;7.65;5.00;;;25.00;64.90;;;;;;5093309;28;20043;-70
2022/08/01 12:39:52;;;;;;;8.95;6.00;;;25.10;65.00;;;;;;5092583;28;20024;-71
2022/08/01 12:42:18;;;;;;;6.07;5.20;;;25.00;63.50;;;;;;5092905;28;20385;-72
2022/08/01 12:44:46;;;;;;;8.18;5.70;;;25.00;62.90;;;;;;5091327;28;20020;-74